Time;durP1;ratioP1;P1;durP2;ratioP2;P2;SDS_P1;SDS_P2;PMS_P1;PMS_P2;Temp;Humidity;BMP_temperature;BMP_pressure;BME280_temperature;BME280_humidity;BME280_pressure;Samples;Min_cycle;Max_cycle;Signal;HPM_P1;HPM_P2
2023/07/09 00:00:47;;;;;;;;;;;20.80;99.90;;;;;;5059826;28;19932;-84
2023/07/09 00:03:12;;;;;;;;;;;20.80;99.90;;;;;;5041161;28;20704;-83
2023/07/09 00:05:38;;;;;;;;;;;20.80;99.90;;;;;;5053300;28;19928;-84
2023/07/09 00:08:03;;;;;;;;;;;20.70;99.90;;;;;;5059103;28;20174;-84
2023/07/09 00:10:29;;;;;;;;;;;20.70;99.90;;;;;;5045077;28;19979;-84
2023/07/09 00:12:55;;;;;;;;;;;20.60;99.90;;;;;;5039757;28;19932;-83
2023/07/09 00:15:21;;;;;;;;;;;20.50;99.90;;;;;;5045725;28;20383;-84
2023/07/09 00:17:46;;;;;;;;;;;20.50;99.90;;;;;;5038556;28;20303;-83
2023/07/09 00:20:14;;;;;;;;;;;20.50;99.90;;;;;;5038072;28;19925;-84
2023/07/09 00:22:47;;;;;;;;;;;20.40;99.90;;;;;;5038260;28;20631;-83
2023/07/09 00:25:16;;;;;;;;;;;20.40;99.90;;;;;;5051696;28;19929;-84
2023/07/09 00:27:44;;;;;;;;;;;20.40;99.90;;;;;;5057342;28;19931;-83
2023/07/09 00:30:15;;;;;;;;;;;20.40;99.90;;;;;;5018493;28;19946;-84
2023/07/09 00:32:43;;;;;;;;;;;20.40;99.90;;;;;;5032300;28;19928;-83
2023/07/09 00:35:09;;;;;;;;;;;20.30;99.90;;;;;;5055878;28;19931;-83
2023/07/09 00:37:35;;;;;;;;;;;20.30;99.90;;;;;;5054465;28;19931;-83
2023/07/09 00:40:01;;;;;;;;;;;20.20;99.90;;;;;;5061368;28;20035;-84
2023/07/09 00:42:26;;;;;;;;;;;20.20;99.90;;;;;;5057378;28;20371;-83
2023/07/09 00:44:54;;;;;;;;;;;20.20;99.90;;;;;;5053815;28;20011;-83
2023/07/09 00:47:19;;;;;;;;;;;20.20;99.90;;;;;;5033999;28;20367;-83
2023/07/09 00:49:47;;;;;;;;;;;20.10;99.90;;;;;;5047370;28;19939;-86
2023/07/09 00:52:22;;;;;;;;;;;20.10;99.90;;;;;;5058135;28;20287;-84
2023/07/09 00:54:49;;;;;;;;;;;20.00;99.90;;;;;;5047634;28;19940;-85
2023/07/09 00:57:17;;;;;;;;;;;20.00;99.90;;;;;;5053800;28;20307;-86
2023/07/09 00:59:48;;;;;;;;;;;20.00;99.90;;;;;;5055320;28;20401;-84
2023/07/09 01:02:13;;;;;;;;;;;19.90;99.90;;;;;;5055463;28;20819;-83
2023/07/09 01:04:40;;;;;;;;;;;19.90;99.90;;;;;;5043236;28;19933;-85
2023/07/09 01:07:05;;;;;;;;;;;19.80;99.90;;;;;;5049389;28;20395;-83
2023/07/09 01:09:31;;;;;;;;;;;19.80;99.90;;;;;;5050251;28;19932;-84
2023/07/09 01:12:00;;;;;;;;;;;19.80;99.90;;;;;;5052698;28;19928;-85
2023/07/09 01:14:26;;;;;;;;;;;19.70;99.90;;;;;;5033839;28;20425;-86
2023/07/09 01:16:57;;;;;;;;;;;19.70;99.90;;;;;;5034167;28;19925;-84
2023/07/09 01:19:28;;;;;;;;;;;19.70;99.90;;;;;;5042646;28;19933;-84
2023/07/09 01:22:00;;;;;;;;;;;19.60;99.90;;;;;;5050380;28;20480;-86
2023/07/09 01:24:45;;;;;;;;;;;19.60;99.90;;;;;;5045453;28;20375;-83
2023/07/09 01:27:10;;;;;;;;;;;19.60;99.90;;;;;;5048847;28;19924;-83
2023/07/09 01:29:36;;;;;;;;;;;19.60;99.90;;;;;;5048195;28;19970;-84
2023/07/09 01:32:03;;;;;;;;;;;19.60;99.90;;;;;;5047286;28;19948;-84
2023/07/09 01:34:30;;;;;;;;;;;19.50;99.90;;;;;;5056242;28;19924;-83
2023/07/09 01:36:56;;;;;;;;;;;19.40;99.90;;;;;;5059666;28;19939;-83
2023/07/09 01:39:21;;;;;;;;;;;19.30;99.90;;;;;;5061521;28;19925;-83
2023/07/09 01:41:48;;;;;;;;;;;19.40;99.90;;;;;;5039565;28;19933;-85
2023/07/09 01:44:13;;;;;;;;;;;19.30;99.90;;;;;;5062380;28;19928;-83
2023/07/09 01:46:39;;;;;;;;;;;19.30;99.90;;;;;;5055894;28;19974;-85
2023/07/09 01:49:07;;;;;;;;;;;19.20;99.90;;;;;;5036492;28;19924;-83
2023/07/09 01:51:33;;;;;;;;;;;19.20;99.90;;;;;;5051276;28;19931;-83
2023/07/09 01:53:59;;;;;;;;;;;19.20;99.90;;;;;;5040035;28;19977;-84
2023/07/09 01:56:25;;;;;;;;;;;19.20;99.90;;;;;;5035411;28;20885;-83
2023/07/09 01:58:51;;;;;;;;;;;19.20;99.90;;;;;;5059723;28;19929;-87
2023/07/09 02:01:19;;;;;;;;;;;19.20;99.90;;;;;;5056455;28;19925;-86
2023/07/09 02:03:45;;;;;;;;;;;19.20;99.90;;;;;;5041998;28;19929;-84
2023/07/09 02:06:11;;;;;;;;;;;19.20;99.90;;;;;;5053108;28;19933;-86
2023/07/09 02:08:36;;;;;;;;;;;19.10;99.90;;;;;;5037353;28;19924;-85
2023/07/09 02:11:02;;;;;;;;;;;19.10;99.90;;;;;;5054705;28;20359;-83
2023/07/09 02:13:28;;;;;;;;;;;19.00;99.90;;;;;;5055957;28;20371;-83
2023/07/09 02:15:53;;;;;;;;;;;19.00;99.90;;;;;;5052493;28;19925;-83
2023/07/09 02:18:19;;;;;;;;;;;19.00;99.90;;;;;;5056560;28;19932;-83
2023/07/09 02:20:47;;;;;;;;;;;18.90;99.90;;;;;;5052916;28;20008;-83
2023/07/09 02:23:13;;;;;;;;;;;18.90;99.90;;;;;;5037433;28;19963;-84
2023/07/09 02:25:39;;;;;;;;;;;18.80;99.90;;;;;;5051885;28;20015;-87
2023/07/09 02:28:04;;;;;;;;;;;18.80;99.90;;;;;;5032932;28;19925;-83
2023/07/09 02:30:30;;;;;;;;;;;18.80;99.90;;;;;;5054685;28;19933;-84
2023/07/09 02:32:55;;;;;;;;;;;18.80;99.90;;;;;;5050680;28;21594;-85
2023/07/09 02:35:21;;;;;;;;;;;18.80;99.90;;;;;;5032831;28;19929;-85
2023/07/09 02:37:47;;;;;;;;;;;18.80;99.90;;;;;;5053626;28;20016;-83
2023/07/09 02:40:13;;;;;;;;;;;18.80;99.90;;;;;;5036561;28;19924;-86
2023/07/09 02:42:39;;;;;;;;;;;18.70;99.90;;;;;;5038119;28;19924;-84
2023/07/09 02:45:04;;;;;;;;;;;18.70;99.90;;;;;;5050658;28;19931;-87
2023/07/09 02:47:30;;;;;;;;;;;18.70;99.90;;;;;;5053444;28;20035;-84
2023/07/09 02:49:56;;;;;;;;;;;18.60;99.90;;;;;;5057161;28;20379;-83
2023/07/09 02:52:21;;;;;;;;;;;18.70;99.90;;;;;;5051625;28;19929;-83
2023/07/09 02:54:47;;;;;;;;;;;18.70;99.90;;;;;;5060131;28;19935;-84
2023/07/09 02:57:13;;;;;;;;;;;18.70;99.90;;;;;;5044286;28;19994;-84
2023/07/09 02:59:38;;;;;;;;;;;18.70;99.90;;;;;;5060103;28;19928;-84
2023/07/09 03:02:04;;;;;;;;;;;18.70;99.90;;;;;;5038906;28;19929;-85
2023/07/09 03:04:31;;;;;;;;;;;18.60;99.90;;;;;;5051614;28;19928;-83
2023/07/09 03:06:56;;;;;;;;;;;18.60;99.90;;;;;;5049248;28;21361;-83
2023/07/09 03:09:22;;;;;;;;;;;18.60;99.90;;;;;;5053033;28;19933;-87
2023/07/09 03:11:48;;;;;;;;;;;18.60;99.90;;;;;;5050503;28;19933;-84
2023/07/09 03:14:14;;;;;;;;;;;18.60;99.90;;;;;;5054705;28;19928;-84
2023/07/09 03:16:40;;;;;;;;;;;18.50;99.90;;;;;;5039231;28;19974;-84
2023/07/09 03:19:05;;;;;;;;;;;18.50;99.90;;;;;;5054128;28;19937;-84
2023/07/09 03:21:32;;;;;;;;;;;18.50;99.90;;;;;;5035813;28;19940;-83
2023/07/09 03:23:57;;;;;;;;;;;18.50;99.90;;;;;;5052547;28;19933;-87
2023/07/09 03:26:24;;;;;;;;;;;18.50;99.90;;;;;;5050853;28;19936;-84
2023/07/09 03:28:49;;;;;;;;;;;18.50;99.90;;;;;;5040117;28;20390;-84
2023/07/09 03:31:15;;;;;;;;;;;18.50;99.90;;;;;;5031185;28;19932;-83
2023/07/09 03:33:40;;;;;;;;;;;18.50;99.90;;;;;;5037501;28;20788;-87
2023/07/09 03:36:06;;;;;;;;;;;18.50;99.90;;;;;;5060319;28;19989;-86
2023/07/09 03:38:32;;;;;;;;;;;18.50;99.90;;;;;;5055388;28;20434;-85
2023/07/09 03:40:58;;;;;;;;;;;18.50;99.90;;;;;;5050468;28;19933;-84
2023/07/09 03:43:24;;;;;;;;;;;18.50;99.90;;;;;;5054531;28;20380;-84
2023/07/09 03:45:49;;;;;;;;;;;18.50;99.90;;;;;;5057427;28;19943;-84
2023/07/09 03:48:16;;;;;;;;;;;18.50;99.90;;;;;;5028142;28;19929;-87
2023/07/09 03:50:43;;;;;;;;;;;18.60;99.90;;;;;;5056454;28;19924;-84
2023/07/09 03:53:08;;;;;;;;;;;18.60;99.90;;;;;;5042144;28;19925;-84
2023/07/09 03:55:34;;;;;;;;;;;18.60;99.90;;;;;;5040497;28;19931;-83
2023/07/09 03:57:59;;;;;;;;;;;18.70;99.90;;;;;;5053525;28;19924;-86
2023/07/09 04:00:25;;;;;;;;;;;18.70;99.90;;;;;;5056480;28;20884;-87
2023/07/09 04:02:51;;;;;;;;;;;18.80;99.90;;;;;;5056920;28;19925;-86
2023/07/09 04:05:17;;;;;;;;;;;18.90;99.90;;;;;;5056684;28;20027;-84
2023/07/09 04:07:43;;;;;;;;;;;18.90;99.90;;;;;;5055009;28;19982;-83
2023/07/09 04:10:09;;;;;;;;;;;19.00;99.90;;;;;;5038805;28;20291;-87
2023/07/09 04:12:36;;;;;;;;;;;19.10;99.90;;;;;;5049316;28;20009;-86
2023/07/09 04:15:02;;;;;;;;;;;19.20;99.90;;;;;;5033644;28;19936;-85
2023/07/09 04:17:28;;;;;;;;;;;19.30;99.90;;;;;;5050201;28;19967;-85
2023/07/09 04:19:54;;;;;;;;;;;19.40;99.90;;;;;;5051141;28;19996;-84
2023/07/09 04:22:19;;;;;;;;;;;19.50;99.90;;;;;;5053703;28;19931;-84
2023/07/09 04:24:45;;;;;;;;;;;19.60;99.90;;;;;;5050547;28;19929;-84
2023/07/09 04:27:11;;;;;;;;;;;19.70;99.90;;;;;;5049401;28;19928;-84
2023/07/09 04:29:38;;;;;;;;;;;19.80;99.90;;;;;;5051801;28;19924;-84
2023/07/09 04:32:08;;;;;;;;;;;19.90;99.90;;;;;;5036538;28;19932;-84
2023/07/09 04:34:33;;;;;;;;;;;19.90;99.90;;;;;;5047001;28;19936;-85
2023/07/09 04:36:59;;;;;;;;;;;20.00;99.90;;;;;;5054158;28;19929;-84
2023/07/09 04:39:24;;;;;;;;;;;20.10;99.90;;;;;;5049692;28;20402;-85
2023/07/09 04:41:50;;;;;;;;;;;20.20;99.90;;;;;;5052869;28;19951;-84
2023/07/09 04:44:15;;;;;;;;;;;20.30;99.90;;;;;;5051650;28;19933;-84
2023/07/09 04:46:41;;;;;;;;;;;20.40;99.90;;;;;;5051395;28;19941;-88
2023/07/09 04:49:07;;;;;;;;;;;20.50;99.90;;;;;;5050335;28;19978;-85
2023/07/09 04:51:33;;;;;;;;;;;20.70;99.90;;;;;;5037223;28;19928;-84
2023/07/09 04:53:58;;;;;;;;;;;20.80;99.90;;;;;;5051834;28;19924;-85
2023/07/09 04:56:24;;;;;;;;;;;20.90;99.90;;;;;;5052178;28;19932;-86
2023/07/09 04:58:49;;;;;;;;;;;21.10;99.90;;;;;;5048170;28;19990;-84
2023/07/09 05:01:15;;;;;;;;;;;21.20;99.90;;;;;;5051651;28;19928;-86
2023/07/09 05:03:40;;;;;;;;;;;21.40;99.90;;;;;;5046015;28;19932;-83
2023/07/09 05:06:06;;;;;;;;;;;21.50;99.90;;;;;;5046855;28;19935;-84
2023/07/09 05:08:32;;;;;;;;;;;21.70;99.90;;;;;;5056053;28;19932;-83
2023/07/09 05:11:00;;;;;;;;;;;21.90;99.90;;;;;;5052478;28;20375;-84
2023/07/09 05:13:27;;;;;;;;;;;22.00;99.90;;;;;;5054679;28;19934;-83
2023/07/09 05:15:52;;;;;;;;;;;22.20;99.90;;;;;;5055353;28;19931;-84
2023/07/09 05:18:18;;;;;;;;;;;22.40;99.90;;;;;;5049835;28;19929;-84
2023/07/09 05:20:45;;;;;;;;;;;22.50;99.90;;;;;;5056630;28;20007;-84
2023/07/09 05:23:11;;;;;;;;;;;22.60;99.90;;;;;;5036901;28;19940;-86
2023/07/09 05:25:37;;;;;;;;;;;22.80;99.90;;;;;;5059062;28;19931;-84
2023/07/09 05:28:03;;;;;;;;;;;22.90;99.90;;;;;;5055384;28;19926;-84
2023/07/09 05:30:29;;;;;;;;;;;23.00;99.90;;;;;;5035166;28;20010;-85
2023/07/09 05:32:57;;;;;;;;;;;23.00;99.90;;;;;;5048251;28;19930;-83
2023/07/09 05:35:23;;;;;;;;;;;22.90;99.90;;;;;;5047217;28;19929;-85
2023/07/09 05:37:48;;;;;;;;;;;22.90;99.90;;;;;;5049870;28;20291;-83
2023/07/09 05:40:14;;;;;;;;;;;22.80;99.90;;;;;;5032240;28;19936;-84
2023/07/09 05:42:40;;;;;;;;;;;22.80;99.90;;;;;;5031599;28;19925;-86
2023/07/09 05:45:05;;;;;;;;;;;22.90;99.90;;;;;;5045344;28;19925;-83
2023/07/09 05:47:31;;;;;;;;;;;22.90;99.90;;;;;;5032708;28;19939;-87
2023/07/09 05:49:56;;;;;;;;;;;22.90;99.90;;;;;;5033233;28;20283;-83
2023/07/09 05:52:23;;;;;;;;;;;22.80;99.90;;;;;;5048603;28;19936;-85
2023/07/09 05:54:49;;;;;;;;;;;22.80;99.90;;;;;;5052689;28;20291;-87
2023/07/09 05:57:15;;;;;;;;;;;22.80;99.90;;;;;;5058213;28;19933;-84
2023/07/09 05:59:40;;;;;;;;;;;23.00;99.90;;;;;;5048301;28;20893;-83
2023/07/09 06:02:12;;;;;;;;;;;23.20;99.90;;;;;;5036982;28;19929;-85
2023/07/09 06:04:38;;;;;;;;;;;23.50;99.90;;;;;;5036825;28;19925;-84
2023/07/09 06:07:04;;;;;;;;;;;23.60;99.90;;;;;;5051772;28;19928;-85
2023/07/09 06:09:30;;;;;;;;;;;23.90;99.90;;;;;;5049218;28;19980;-86
2023/07/09 06:11:55;;;;;;;;;;;24.10;99.90;;;;;;5048038;28;19925;-83
2023/07/09 06:14:21;;;;;;;;;;;24.30;99.90;;;;;;5033076;28;19975;-86
2023/07/09 06:16:46;;;;;;;;;;;24.50;99.90;;;;;;5034258;28;19954;-81
2023/07/09 06:19:12;;;;;;;;;;;24.70;99.90;;;;;;5050966;28;20327;-81
2023/07/09 06:21:38;;;;;;;;;;;24.90;99.90;;;;;;5048039;28;19932;-81
2023/07/09 06:24:05;;;;;;;;;;;25.20;99.90;;;;;;5032098;28;19929;-84
2023/07/09 06:26:30;;;;;;;;;;;25.60;99.90;;;;;;5031131;28;20050;-87
2023/07/09 06:28:56;;;;;;;;;;;26.00;99.90;;;;;;5037554;28;20027;-82
2023/07/09 06:31:21;;;;;;;;;;;26.30;99.90;;;;;;5052672;28;19925;-82
2023/07/09 06:33:47;;;;;;;;;;;26.40;99.90;;;;;;5057643;28;19932;-82
2023/07/09 06:36:13;;;;;;;;;;;26.70;99.90;;;;;;5054948;28;19939;-83
2023/07/09 06:38:38;;;;;;;;;;;27.00;99.90;;;;;;5043003;28;19936;-82
2023/07/09 06:41:04;;;;;;;;;;;27.20;99.90;;;;;;5056921;28;19924;-82
2023/07/09 06:43:31;;;;;;;;;;;27.40;99.90;;;;;;5054654;28;20017;-83
2023/07/09 06:45:58;;;;;;;;;;;27.40;99.90;;;;;;5049695;28;20379;-84
2023/07/09 06:48:25;;;;;;;;;;;27.50;99.90;;;;;;5058173;28;19929;-85
2023/07/09 06:50:51;;;;;;;;;;;27.70;99.90;;;;;;5057409;28;20093;-83
2023/07/09 06:53:17;;;;;;;;;;;27.90;99.90;;;;;;5051371;28;20277;-83
2023/07/09 06:55:42;;;;;;;;;;;28.20;99.90;;;;;;5052902;28;19970;-84
2023/07/09 06:58:08;;;;;;;;;;;28.40;99.90;;;;;;5036710;28;19933;-83
2023/07/09 07:00:35;;;;;;;;;;;28.70;99.90;;;;;;5043239;28;20070;-84
2023/07/09 07:03:00;;;;;;;;;;;28.90;99.90;;;;;;5054836;28;19938;-82
2023/07/09 07:05:26;;;;;;;;;;;29.00;99.90;;;;;;5056246;28;19928;-85
2023/07/09 07:07:53;;;;;;;;;;;29.20;99.90;;;;;;5049210;28;19924;-85
2023/07/09 07:10:19;;;;;;;;;;;29.30;99.90;;;;;;5051894;28;19935;-83
2023/07/09 07:12:45;;;;;;;;;;;29.30;99.90;;;;;;5047927;28;19928;-87
2023/07/09 07:15:13;;;;;;;;;;;29.40;99.90;;;;;;5059233;28;19928;-85
2023/07/09 07:17:39;;;;;;;;;;;29.70;99.90;;;;;;5055883;28;20480;-83
2023/07/09 07:20:05;;;;;;;;;;;29.80;99.50;;;;;;5057233;28;19932;-83
2023/07/09 07:22:31;;;;;;;;;;;30.00;99.90;;;;;;5036912;28;19932;-87
2023/07/09 07:24:56;;;;;;;;;;;30.20;99.80;;;;;;5057727;28;19939;-82
2023/07/09 07:27:22;;;;;;;;;;;30.30;99.60;;;;;;5037156;28;19924;-85
2023/07/09 07:29:47;;;;;;;;;;;30.30;99.80;;;;;;5046189;28;19932;-83
2023/07/09 07:32:13;;;;;;;;;;;30.40;98.50;;;;;;5051257;28;20235;-84
2023/07/09 07:34:38;;;;;;;;;;;30.60;97.70;;;;;;5048798;28;20059;-83
2023/07/09 07:37:04;;;;;;;;;;;30.70;97.40;;;;;;5054272;28;19935;-86
2023/07/09 07:39:30;;;;;;;;;;;30.90;97.10;;;;;;5051884;28;19928;-81
2023/07/09 07:41:55;;;;;;;;;;;31.20;97.00;;;;;;5051187;28;20394;-83
2023/07/09 07:44:22;;;;;;;;;;;31.40;95.60;;;;;;5054413;28;19971;-83
2023/07/09 07:46:47;;;;;;;;;;;31.60;95.50;;;;;;5050224;28;19926;-83
2023/07/09 07:49:13;;;;;;;;;;;31.70;94.80;;;;;;5034849;28;20385;-82
2023/07/09 07:51:38;;;;;;;;;;;31.90;94.60;;;;;;5060157;28;19990;-82
2023/07/09 07:54:04;;;;;;;;;;;31.90;94.20;;;;;;5053493;28;19925;-82
2023/07/09 07:56:30;;;;;;;;;;;31.90;94.30;;;;;;5052460;28;19925;-82
2023/07/09 07:58:55;;;;;;;;;;;31.90;95.10;;;;;;5033779;28;19935;-84
2023/07/09 08:01:21;;;;;;;;;;;31.80;94.30;;;;;;5050930;28;19956;-82
2023/07/09 08:03:47;;;;;;;;;;;31.60;94.30;;;;;;5065942;28;19925;-82
2023/07/09 08:06:12;;;;;;;;;;;31.60;94.30;;;;;;5051894;28;19975;-82
2023/07/09 08:08:38;;;;;;;;;;;31.60;94.20;;;;;;5052054;28;19929;-82
2023/07/09 08:11:04;;;;;;;;;;;31.80;93.90;;;;;;5051869;28;19932;-82
2023/07/09 08:13:37;;;;;;;;;;;32.00;93.20;;;;;;5050703;28;19929;-83
2023/07/09 08:16:03;;;;;;;;;;;32.00;93.50;;;;;;5064091;28;20080;-86
2023/07/09 08:18:29;;;;;;;;;;;31.80;93.50;;;;;;5051856;28;20375;-83
2023/07/09 08:20:54;;;;;;;;;;;31.60;92.90;;;;;;5060477;28;20367;-82
2023/07/09 08:23:20;;;;;;;;;;;31.60;93.80;;;;;;5052646;28;19925;-83
2023/07/09 08:25:52;;;;;;;;;;;31.60;94.40;;;;;;5058658;28;19929;-82
2023/07/09 08:28:17;;;;;;;;;;;31.70;93.90;;;;;;5052916;28;19956;-83
2023/07/09 08:30:43;;;;;;;;;;;31.90;94.40;;;;;;5051535;28;19982;-84
2023/07/09 08:33:10;;;;;;;;;;;32.10;93.40;;;;;;5055813;28;19924;-82
2023/07/09 08:35:35;;;;;;;;;;;32.20;94.30;;;;;;5051377;28;19931;-82
2023/07/09 08:38:01;;;;;;;;;;;32.40;91.80;;;;;;5051484;28;19925;-84
2023/07/09 08:40:26;;;;;;;;;;;32.40;94.40;;;;;;5051259;28;19983;-82
2023/07/09 08:42:55;;;;;;;;;;;32.40;93.70;;;;;;5051522;28;19924;-82
2023/07/09 08:45:23;;;;;;;;;;;32.60;92.80;;;;;;5041414;28;19932;-83
2023/07/09 08:48:00;;;;;;;;;;;32.90;91.90;;;;;;5050114;28;19931;-82
2023/07/09 08:50:31;;;;;;;;;;;33.10;90.80;;;;;;5031718;28;20011;-82
2023/07/09 08:52:57;;;;;;;;;;;33.30;89.90;;;;;;5051232;28;19971;-83
2023/07/09 08:55:26;;;;;;;;;;;33.40;90.20;;;;;;5049970;28;19982;-85
2023/07/09 08:57:55;;;;;;;;;;;33.50;89.20;;;;;;5039062;28;19936;-86
2023/07/09 09:00:26;;;;;;;;;;;33.50;90.30;;;;;;5049926;28;20442;-83
2023/07/09 09:02:57;;;;;;;;;;;33.70;88.70;;;;;;5051208;28;19925;-83
2023/07/09 09:05:24;;;;;;;;;;;33.70;87.40;;;;;;5057079;28;19935;-86
2023/07/09 09:07:51;;;;;;;;;;;34.00;88.00;;;;;;5033542;28;19925;-83
2023/07/09 09:10:37;;;;;;;;;;;34.00;85.20;;;;;;5052499;28;20379;-83
2023/07/09 09:13:06;;;;;;;;;;;34.00;89.00;;;;;;5062997;28;19955;-83
2023/07/09 09:15:32;;;;;;;;;;;34.00;85.60;;;;;;5050718;28;19937;-83
2023/07/09 09:18:17;;;;;;;;;;;33.90;84.30;;;;;;5049547;28;20015;-83
2023/07/09 09:20:53;;;;;;;;;;;33.90;84.00;;;;;;5048009;28;19929;-84
2023/07/09 09:23:18;;;;;;;;;;;34.00;82.80;;;;;;5053046;28;19925;-83
2023/07/09 09:25:47;;;;;;;;;;;34.00;82.70;;;;;;5051006;28;19936;-82
2023/07/09 09:28:14;;;;;;;;;;;34.00;83.30;;;;;;5051275;28;19933;-84
2023/07/09 09:30:39;;;;;;;;;;;34.30;83.10;;;;;;5048714;28;19924;-86
2023/07/09 09:33:06;;;;;;;;;;;34.40;84.50;;;;;;5051109;28;19982;-84
2023/07/09 09:35:33;;;;;;;;;;;34.40;82.90;;;;;;5033592;28;19932;-84
2023/07/09 09:38:00;;;;;;;;;;;34.60;81.30;;;;;;5050905;28;20370;-82
2023/07/09 09:40:26;;;;;;;;;;;34.70;82.80;;;;;;5033996;28;19971;-86
2023/07/09 09:42:54;;;;;;;;;;;34.70;85.00;;;;;;5037331;28;19932;-83
2023/07/09 09:45:20;;;;;;;;;;;34.80;79.40;;;;;;5062189;28;19928;-84
2023/07/09 09:47:46;;;;;;;;;;;34.90;83.50;;;;;;5032431;28;19925;-82
2023/07/09 09:50:20;;;;;;;;;;;34.80;79.80;;;;;;5063761;28;19925;-83
2023/07/09 09:52:46;;;;;;;;;;;34.80;82.30;;;;;;5054272;28;20573;-83
2023/07/09 09:55:19;;;;;;;;;;;34.80;77.30;;;;;;5053688;28;20012;-83
2023/07/09 09:57:52;;;;;;;;;;;34.90;77.70;;;;;;5044563;28;20010;-82
2023/07/09 10:00:19;;;;;;;;;;;34.90;78.20;;;;;;5033192;28;20437;-83
2023/07/09 10:02:47;;;;;;;;;;;34.90;79.70;;;;;;5046439;28;19943;-84
2023/07/09 10:05:13;;;;;;;;;;;35.00;78.00;;;;;;5056579;28;20029;-83
2023/07/09 10:07:42;;;;;;;;;;;35.20;76.00;;;;;;5058539;28;20295;-83
2023/07/09 10:10:11;;;;;;;;;;;35.10;77.10;;;;;;5054729;28;19947;-83
2023/07/09 10:12:38;;;;;;;;;;;35.00;78.20;;;;;;5054719;28;20039;-82
2023/07/09 10:15:16;;;;;;;;;;;34.90;76.90;;;;;;5035836;28;20371;-83
2023/07/09 10:17:44;;;;;;;;;;;34.80;77.20;;;;;;5054686;28;20082;-83
2023/07/09 10:20:28;;;;;;;;;;;34.90;77.90;;;;;;5059776;28;19925;-83
2023/07/09 10:22:56;;;;;;;;;;;34.90;76.20;;;;;;5060559;28;19967;-83
2023/07/09 10:25:40;;;;;;;;;;;34.80;75.90;;;;;;5033345;28;19924;-83
2023/07/09 10:28:17;;;;;;;;;;;34.70;75.80;;;;;;5054427;28;19925;-83
2023/07/09 10:30:50;;;;;;;;;;;34.70;77.20;;;;;;5036594;28;20040;-83
2023/07/09 10:33:31;;;;;;;;;;;34.70;74.50;;;;;;5054211;28;20001;-83
2023/07/09 10:36:02;;;;;;;;;;;34.70;73.90;;;;;;5052779;28;19933;-84
2023/07/09 10:38:38;;;;;;;;;;;34.70;77.70;;;;;;5044154;28;19929;-83
2023/07/09 10:41:07;;;;;;;;;;;34.90;74.20;;;;;;5060375;28;19964;-83
2023/07/09 10:43:37;;;;;;;;;;;35.10;74.00;;;;;;5053879;28;20492;-84
2023/07/09 10:46:11;;;;;;;;;;;35.30;72.20;;;;;;5052949;28;20011;-84
2023/07/09 10:48:39;;;;;;;;;;;35.30;76.00;;;;;;5053084;28;20015;-82
2023/07/09 10:51:09;;;;;;;;;;;35.20;72.80;;;;;;5059179;28;20709;-83
2023/07/09 10:53:44;;;;;;;;;;;35.30;74.50;;;;;;5040827;28;19929;-86
2023/07/09 10:56:21;;;;;;;;;;;35.50;73.30;;;;;;5048804;28;19935;-86
2023/07/09 10:58:50;;;;;;;;;;;35.50;73.00;;;;;;5048448;28;20403;-82
2023/07/09 11:01:15;;;;;;;;;;;35.40;70.80;;;;;;5038890;28;20410;-84
2023/07/09 11:03:52;;;;;;;;;;;35.40;73.00;;;;;;5058326;28;19964;-83
2023/07/09 11:06:24;;;;;;;;;;;35.30;72.80;;;;;;5050585;28;19975;-83
2023/07/09 11:08:51;;;;;;;;;;;35.40;70.50;;;;;;5046493;28;19931;-82
2023/07/09 11:11:23;;;;;;;;;;;35.30;68.60;;;;;;5059985;28;19982;-82
2023/07/09 11:13:57;;;;;;;;;;;35.40;69.80;;;;;;5053260;28;19928;-83
2023/07/09 11:16:42;;;;;;;;;;;35.40;74.10;;;;;;5047945;28;20283;-83
2023/07/09 11:19:15;;;;;;;;;;;35.50;71.20;;;;;;5044317;28;20341;-83
2023/07/09 11:22:03;;;;;;;;;;;35.50;70.50;;;;;;5052171;28;20345;-82
2023/07/09 11:24:33;;;;;;;;;;;35.30;68.80;;;;;;5052626;28;20275;-83
2023/07/09 11:27:00;;;;;;;;;;;35.30;74.40;;;;;;5051767;28;19931;-83
2023/07/09 11:29:27;;;;;;;;;;;35.30;71.50;;;;;;5018523;28;19931;-88
2023/07/09 11:31:52;;;;;;;;;;;35.30;70.60;;;;;;5064242;28;19932;-82
2023/07/09 11:34:20;;;;;;;;;;;35.30;67.80;;;;;;5053105;28;20307;-82
2023/07/09 11:36:48;;;;;;;;;;;35.30;70.60;;;;;;5052917;28;19925;-82
2023/07/09 11:39:20;;;;;;;;;;;35.50;70.90;;;;;;5052774;28;19971;-84
2023/07/09 11:41:46;;;;;;;;;;;35.50;71.20;;;;;;5057503;28;20302;-82
2023/07/09 11:44:13;;;;;;;;;;;35.70;69.70;;;;;;5060099;28;19925;-82
2023/07/09 11:46:59;;;;;;;;;;;35.50;67.30;;;;;;5058772;28;19931;-82
2023/07/09 11:49:27;;;;;;;;;;;35.60;69.40;;;;;;5021007;28;19932;-82
2023/07/09 11:51:57;;;;;;;;;;;35.60;72.90;;;;;;5051175;28;20382;-82
2023/07/09 11:54:23;;;;;;;;;;;35.60;70.10;;;;;;5036998;28;19935;-82
2023/07/09 11:56:59;;;;;;;;;;;35.60;70.60;;;;;;5057624;28;19928;-85
2023/07/09 11:59:24;;;;;;;;;;;35.60;67.60;;;;;;5058438;28;19931;-83
2023/07/09 12:01:52;;;;;;;;;;;35.60;67.10;;;;;;5050396;28;20620;-83
2023/07/09 12:04:20;;;;;;;;;;;35.70;67.90;;;;;;5052357;28;19933;-83
2023/07/09 12:06:46;;;;;;;;;;;35.70;68.70;;;;;;5052297;28;19925;-83
2023/07/09 12:09:19;;;;;;;;;;;35.80;68.40;;;;;;5050943;28;19979;-82
2023/07/09 12:11:45;;;;;;;;;;;35.70;72.70;;;;;;5066653;28;19929;-85
2023/07/09 12:14:15;;;;;;;;;;;35.80;65.20;;;;;;5048104;28;19928;-85
2023/07/09 12:16:42;;;;;;;;;;;35.80;67.10;;;;;;5037376;28;19936;-87
2023/07/09 12:19:09;;;;;;;;;;;35.90;69.40;;;;;;5039377;28;19928;-85
2023/07/09 12:21:36;;;;;;;;;;;35.90;68.80;;;;;;5050890;28;19925;-84
2023/07/09 12:24:02;;;;;;;;;;;36.00;69.40;;;;;;5050537;28;19979;-84
2023/07/09 12:26:30;;;;;;;;;;;36.00;66.90;;;;;;5049076;28;20337;-85
2023/07/09 12:28:57;;;;;;;;;;;35.90;64.80;;;;;;5029047;28;19935;-85
2023/07/09 12:31:27;;;;;;;;;;;35.80;67.80;;;;;;5051633;28;20363;-85
2023/07/09 12:33:53;;;;;;;;;;;35.70;64.90;;;;;;5040607;28;19928;-85
2023/07/09 12:36:19;;;;;;;;;;;35.60;64.80;;;;;;5052734;28;20414;-85
2023/07/09 12:38:46;;;;;;;;;;;35.50;64.20;;;;;;5032948;28;19932;-84
2023/07/09 12:41:18;;;;;;;;;;;35.40;64.30;;;;;;5050546;28;19932;-84
2023/07/09 12:43:44;;;;;;;;;;;35.40;65.60;;;;;;5051761;28;19935;-83
2023/07/09 12:46:10;;;;;;;;;;;35.60;65.70;;;;;;5054558;28;19925;-84
2023/07/09 12:48:35;;;;;;;;;;;35.80;64.80;;;;;;5033282;28;19924;-83
2023/07/09 12:51:06;;;;;;;;;;;35.80;65.00;;;;;;5053179;28;19929;-84
2023/07/09 12:53:31;;;;;;;;;;;36.00;64.50;;;;;;5051729;28;20024;-86
2023/07/09 12:55:58;;;;;;;;;;;35.90;65.20;;;;;;5050305;28;20019;-84
2023/07/09 12:58:25;;;;;;;;;;;35.50;66.20;;;;;;5051173;28;19932;-84
2023/07/09 13:00:54;;;;;;;;;;;35.10;67.80;;;;;;5052013;28;20049;-84
2023/07/09 13:03:21;;;;;;;;;;;34.60;67.00;;;;;;5053170;28;20386;-84
2023/07/09 13:05:54;;;;;;;;;;;34.30;67.20;;;;;;5032787;28;19929;-83
2023/07/09 13:08:19;;;;;;;;;;;34.10;68.90;;;;;;5053734;28;20015;-83
2023/07/09 13:10:45;;;;;;;;;;;33.80;70.70;;;;;;5050795;28;20003;-82
2023/07/09 13:13:12;;;;;;;;;;;33.50;70.40;;;;;;5055396;28;19928;-84
2023/07/09 13:15:43;;;;;;;;;;;33.40;70.00;;;;;;5060857;28;20291;-85
2023/07/09 13:18:10;;;;;;;;;;;33.20;71.30;;;;;;5051467;28;19993;-85
2023/07/09 13:20:40;;;;;;;;;;;32.90;72.30;;;;;;5030345;28;19964;-83
2023/07/09 13:23:10;;;;;;;;;;;32.70;70.80;;;;;;5047903;28;19925;-83
2023/07/09 13:25:38;;;;;;;;;;;32.40;72.40;;;;;;5053307;28;19925;-84
2023/07/09 13:28:03;;;;;;;;;;;32.30;71.30;;;;;;5047140;28;19968;-84
2023/07/09 13:30:29;;;;;;;;;;;32.00;72.20;;;;;;5048993;28;20363;-84
2023/07/09 13:32:54;;;;;;;;;;;31.80;72.10;;;;;;5029979;28;19929;-84
2023/07/09 13:35:20;;;;;;;;;;;31.70;72.10;;;;;;5048742;28;20007;-83
2023/07/09 13:37:45;;;;;;;;;;;31.60;73.50;;;;;;5035339;28;21639;-82
2023/07/09 13:40:12;;;;;;;;;;;31.50;72.70;;;;;;5041877;28;19928;-83
2023/07/09 13:42:38;;;;;;;;;;;31.40;73.00;;;;;;5056319;28;19924;-84
2023/07/09 13:45:04;;;;;;;;;;;31.30;75.90;;;;;;5064260;28;19928;-83
2023/07/09 13:47:30;;;;;;;;;;;31.20;74.60;;;;;;5051341;28;20418;-85
2023/07/09 13:49:55;;;;;;;;;;;31.10;76.50;;;;;;5059780;28;19925;-83
2023/07/09 13:52:23;;;;;;;;;;;31.10;76.60;;;;;;5056421;28;19984;-83
2023/07/09 13:54:49;;;;;;;;;;;31.10;77.50;;;;;;5058470;28;19925;-83
2023/07/09 13:57:19;;;;;;;;;;;31.10;77.50;;;;;;5053631;28;20018;-84
2023/07/09 13:59:45;;;;;;;;;;;31.10;80.40;;;;;;5051531;28;20011;-84
2023/07/09 14:02:20;;;;;;;;;;;31.00;80.50;;;;;;5061219;28;19928;-84
2023/07/09 14:04:45;;;;;;;;;;;31.00;82.60;;;;;;5051324;28;20674;-85
2023/07/09 14:07:22;;;;;;;;;;;30.90;82.50;;;;;;5058582;28;19975;-84
2023/07/09 14:09:48;;;;;;;;;;;30.80;82.70;;;;;;5055526;28;19929;-82
2023/07/09 14:12:13;;;;;;;;;;;30.80;84.70;;;;;;5053472;28;19929;-82
2023/07/09 14:14:39;;;;;;;;;;;30.70;86.50;;;;;;5048788;28;19925;-83
2023/07/09 14:17:05;;;;;;;;;;;30.60;89.40;;;;;;5060837;28;20375;-85